Detall de PIREP

Printer-friendly versionPDF version

[2011/04/05 07:20:00]
Flight IATA:CT2105
Pilot Number:041
Company ICAO:CAT
Aircraft Type:B463/A
PAX:18
Departing Airport: LEBB
Destination Airport: LEVC
Alternate Airport:LEAL
Online: VATSIM
Route:PPN UM601 MARIO POSSY UN862 MLA UN860 SAURA
Flight Level:F320
No Slew and time accel
No pause
Crash detect
Detect pilot in Cockpit between each 30 and 45 minutes
07:20 Zero fuel Weight: 64091 Lbs, Fuel Weight: 20509 Lbs
07:20 VATSIM:LEBB 050700Z VRB02KT CAVOK 09/08 Q1027 NOSIG
07:20 VATSIM:LEVC 050700Z 30003KT 280V350 CAVOK 13/11 Q1026 NOSIG
07:21 VOICE CATALONIAN
07:22 Parking Brakes off
07:28 Take-off
07:28 Take off Weight: 84243 Lbs
07:28 Wind: 317º @ 002 Knots Heading: 116º
07:28 POS N43º 18´ 00´´ W002º 54´ 29´´
07:28 Gear Up: 185 Knots
07:28 Flaps:1 at 185 Knots
07:28 Flaps:0 at 225 Knots
07:42 TOC
07:42 Fuel Weight: 18190 Lb
07:43 Wind:240º@000 Knots Heading: 115º Ground Speed: 365 Knots Altitude 32257 ft
07:58 Wind:235º@005 Knots Heading: 180º Ground Speed: 394 Knots Altitude 32408 ft
08:00 TOD
08:00 Fuel Weight: 16864 Lb
08:13 Wind:326º@003 Knots Heading: 197º Ground Speed: 246 Knots Altitude 6879 ft
08:24 Flaps:1 at 199 Knots
08:26 Flaps:2 at 171 Knots
08:26 Gear Down: 169 Knots
08:27 Flaps:3 at 166 Knots
08:28 Wind:326º@003 Knots Heading: 294º Ground Speed: 166 Knots Altitude 3267 ft
08:31 TouchDown:Rate -308 ft/min Speed: 125 Knots
08:32 VATSIM:LEVC 050800Z 33003KT 280V350 CAVOK 16/11 Q1026 NOSIG
08:32 Land
08:32 Wind:330º@003 Knots
08:32 Heading: 297º
08:32 Flight Duration: 01:04
08:32 Landing Weight: 79509 Lbs
08:32 POS N39º 29´ 16´´ W000º 28´ 40´´
08:34 Parking brakes on
08:34 Block to Block Duration: 01:12
08:34 Final Fuel: 15363 Lbls
08:34 Spent Fuel: 5145 Lbls
08:34 Flight Length: 327 NM
08:34 TOD Land Length: 136 NM

Exportar CSV

Powered by Drupal - Modified by Danger4k